Time;durP1;ratioP1;P1;durP2;ratioP2;P2;SDS_P1;SDS_P2;PMS_P1;PMS_P2;Temp;Humidity;BMP_temperature;BMP_pressure;BME280_temperature;BME280_humidity;BME280_pressure;Samples;Min_cycle;Max_cycle;Signal;HPM_P1;HPM_P2
2022/09/12 00:02:01;;;;;;;6.10;3.30;;;;;;;11.20;72.88;99886.37;105123;1284;24282;-77
2022/09/12 00:04:29;;;;;;;5.10;2.10;;;;;;;11.17;72.97;99887.49;104599;1288;23971;-76
2022/09/12 00:06:56;;;;;;;6.70;3.10;;;;;;;11.13;73.28;99887.58;104562;1287;22620;-76
2022/09/12 00:09:23;;;;;;;5.60;3.00;;;;;;;11.11;73.38;99888.48;104622;1288;24110;-76
2022/09/12 00:11:50;;;;;;;5.70;3.20;;;;;;;11.09;73.43;99891.70;104653;1288;22572;-76
2022/09/12 00:14:18;;;;;;;5.70;2.80;;;;;;;11.08;73.56;99892.79;104850;1287;22679;-77
2022/09/12 00:16:46;;;;;;;6.00;2.70;;;;;;;11.03;73.74;99886.17;104834;1287;24778;-76
2022/09/12 00:19:13;;;;;;;4.30;3.00;;;;;;;11.02;73.89;99889.19;104665;1287;24414;-79
2022/09/12 00:21:40;;;;;;;3.40;2.60;;;;;;;11.01;73.92;99886.21;104818;1287;22673;-73
2022/09/12 00:24:08;;;;;;;3.80;3.00;;;;;;;11.02;73.91;99888.66;104552;1290;24475;-74
2022/09/12 00:26:36;;;;;;;4.70;2.80;;;;;;;11.01;74.12;99883.05;104754;1287;25907;-73
2022/09/12 00:29:03;;;;;;;4.10;2.60;;;;;;;11.01;74.13;99886.38;105543;1281;22554;-75
2022/09/12 00:31:30;;;;;;;5.80;2.50;;;;;;;11.00;74.11;99884.48;105393;1281;22529;-78
2022/09/12 00:34:00;;;;;;;6.70;3.40;;;;;;;10.96;74.37;99888.44;104994;1284;22546;-82
2022/09/12 00:36:29;;;;;;;5.80;2.60;;;;;;;10.91;74.41;99886.77;105229;1284;24243;-79
2022/09/12 00:38:57;;;;;;;12.40;3.30;;;;;;;10.92;74.49;99885.17;105091;1287;23014;-79
2022/09/12 00:41:28;;;;;;;4.30;2.80;;;;;;;10.94;74.70;99885.81;105137;1282;22728;-83
2022/09/12 00:43:58;;;;;;;5.30;2.60;;;;;;;10.88;74.67;99890.33;105587;1282;23949;-77
2022/09/12 00:46:28;;;;;;;2.80;2.40;;;;;;;10.85;74.80;99883.52;105108;1282;25320;-78
2022/09/12 00:49:14;;;;;;;8.10;3.20;;;;;;;10.88;74.79;99885.73;105221;1282;23962;-73
2022/09/12 00:51:45;;;;;;;;;;;;;;;10.88;74.97;99889.10;105379;1279;22635;-75
2022/09/12 00:54:18;;;;;;;5.40;3.00;;;;;;;10.84;75.03;99895.17;105733;1278;22777;-76
2022/09/12 00:56:49;;;;;;;5.90;2.70;;;;;;;10.79;75.24;99895.43;105697;1276;22639;-79
2022/09/12 00:59:28;;;;;;;5.20;3.20;;;;;;;10.81;75.30;99897.67;105943;1273;24400;-81
2022/09/12 01:01:55;;;;;;;7.80;4.10;;;;;;;10.81;75.36;99896.98;105919;1274;22550;-81
2022/09/12 01:04:26;;;;;;;8.20;4.40;;;;;;;10.81;75.43;99896.10;106146;1273;25259;-80
2022/09/12 01:06:56;;;;;;;8.40;4.60;;;;;;;10.80;75.49;99897.88;106025;1273;25443;-78
2022/09/12 01:09:24;;;;;;;6.20;3.70;;;;;;;10.81;75.42;99904.55;106051;1274;25334;-78
2022/09/12 01:11:52;;;;;;;9.30;4.30;;;;;;;10.78;75.54;99907.94;106011;1273;24220;-82
2022/09/12 01:14:19;;;;;;;7.70;4.70;;;;;;;10.76;75.53;99905.52;106007;1273;22532;-77
2022/09/12 01:16:48;;;;;;;6.60;4.10;;;;;;;10.75;75.66;99909.58;106281;1273;24080;-80
2022/09/12 01:19:27;;;;;;;8.30;4.10;;;;;;;10.74;75.71;99910.65;106051;1273;24397;-83
2022/09/12 01:22:31;;;;;;;7.10;4.00;;;;;;;10.75;75.74;99915.23;105959;1273;25317;-81
2022/09/12 01:25:20;;;;;;;6.00;4.00;;;;;;;10.72;75.84;99911.93;106218;1273;22839;-80
2022/09/12 01:28:14;;;;;;;4.10;3.20;;;;;;;10.66;75.96;99910.45;105972;1273;23767;-83
2022/09/12 01:30:45;;;;;;;6.20;3.30;;;;;;;10.63;75.95;99913.65;106225;1273;22708;-82
2022/09/12 01:33:54;;;;;;;7.00;3.40;;;;;;;10.63;76.02;99910.14;106063;1276;24284;-80
2022/09/12 01:36:40;;;;;;;7.40;3.60;;;;;;;10.67;75.95;99914.48;106127;1273;22540;-79
2022/09/12 01:39:19;;;;;;;7.50;4.30;;;;;;;10.71;75.98;99912.48;106056;1273;22554;-81
2022/09/12 01:41:53;;;;;;;8.70;3.70;;;;;;;10.73;75.91;99913.66;106030;1273;25384;-79
2022/09/12 01:44:43;;;;;;;7.30;3.70;;;;;;;10.73;75.85;99912.96;105952;1273;23547;-79
2022/09/12 01:47:21;;;;;;;5.10;3.50;;;;;;;10.71;75.93;99918.83;106142;1273;24213;-79
2022/09/12 01:50:00;;;;;;;7.70;3.80;;;;;;;10.78;75.98;99919.56;106078;1273;22547;-80
2022/09/12 01:52:34;;;;;;;8.40;3.90;;;;;;;10.81;75.70;99919.34;106006;1273;22560;-80
2022/09/12 01:55:12;;;;;;;3.50;3.20;;;;;;;10.80;75.63;99926.77;106118;1273;25208;-78
2022/09/12 01:58:08;;;;;;;7.10;4.10;;;;;;;10.81;75.50;99929.02;106165;1273;24211;-81
2022/09/12 02:00:47;;;;;;;7.70;3.60;;;;;;;10.84;75.52;99927.92;106138;1273;24238;-81
2022/09/12 02:03:20;;;;;;;5.70;3.50;;;;;;;10.82;75.47;99926.02;106080;1273;22538;-72
2022/09/12 02:06:12;;;;;;;8.40;3.60;;;;;;;10.76;75.63;99924.02;105991;1274;23895;-74
2022/09/12 02:08:48;;;;;;;7.30;3.50;;;;;;;10.74;75.78;99919.30;105687;1281;24532;-74
2022/09/12 02:11:15;;;;;;;6.30;3.00;;;;;;;10.74;75.77;99915.41;105452;1282;25267;-76
2022/09/12 02:13:51;;;;;;;6.30;3.30;;;;;;;10.75;75.70;99921.40;105749;1281;25254;-74
2022/09/12 02:16:25;;;;;;;4.40;3.30;;;;;;;10.75;75.72;99923.33;105436;1281;25343;-73
2022/09/12 02:18:57;;;;;;;7.70;3.00;;;;;;;10.70;75.70;99918.13;105133;1281;24013;-75
2022/09/12 02:21:27;;;;;;;7.70;2.80;;;;;;;10.66;75.84;99920.65;105515;1281;23343;-80
2022/09/12 02:23:58;;;;;;;5.00;2.70;;;;;;;10.67;75.94;99922.59;105673;1281;25701;-78
2022/09/12 02:26:49;;;;;;;6.60;3.90;;;;;;;10.67;75.95;99923.11;105738;1281;22647;-77
2022/09/12 02:29:16;;;;;;;4.10;2.80;;;;;;;10.73;75.99;99923.17;105665;1281;25295;-78
2022/09/12 02:31:46;;;;;;;6.50;2.90;;;;;;;10.74;75.89;99921.40;105741;1281;22595;-77
2022/09/12 02:34:32;;;;;;;5.10;3.20;;;;;;;10.76;75.88;99919.08;105941;1274;24234;-76
2022/09/12 02:37:06;;;;;;;3.70;2.70;;;;;;;10.79;75.67;99920.96;106042;1274;23219;-78
2022/09/12 02:39:34;;;;;;;5.10;3.20;;;;;;;10.78;75.68;99925.73;106174;1273;22623;-77
2022/09/12 02:42:02;;;;;;;5.60;3.30;;;;;;;10.78;75.76;99928.21;106017;1275;26566;-77
2022/09/12 02:44:32;;;;;;;6.30;2.70;;;;;;;10.77;75.64;99925.75;106161;1273;22631;-78
2022/09/12 02:47:09;;;;;;;6.10;3.00;;;;;;;10.79;75.70;99930.30;106055;1275;25403;-77
2022/09/12 02:49:36;;;;;;;5.50;3.50;;;;;;;10.79;75.81;99933.48;106086;1274;25620;-82
2022/09/12 02:52:03;;;;;;;6.00;4.10;;;;;;;10.77;76.04;99937.56;106020;1274;22547;-79
2022/09/12 02:54:31;;;;;;;4.30;3.50;;;;;;;10.74;76.10;99943.06;105775;1279;24270;-81
2022/09/12 02:56:58;;;;;;;8.80;4.00;;;;;;;10.72;76.10;99943.29;105529;1280;22750;-81
2022/09/12 02:59:26;;;;;;;8.20;3.90;;;;;;;10.68;76.21;99945.65;105762;1279;25388;-80
2022/09/12 03:02:37;;;;;;;7.80;4.00;;;;;;;10.72;76.33;99946.27;105626;1279;24297;-75
2022/09/12 03:05:07;;;;;;;6.90;4.50;;;;;;;10.74;76.50;99945.35;105007;1285;24271;-73
2022/09/12 03:07:49;;;;;;;7.80;4.40;;;;;;;10.77;76.52;99945.13;104751;1287;25291;-72
2022/09/12 03:10:31;;;;;;;6.50;3.90;;;;;;;10.72;76.48;99946.80;105119;1281;22534;-73
2022/09/12 03:13:23;;;;;;;10.00;4.30;;;;;;;10.72;76.57;99943.10;105331;1279;22658;-73
2022/09/12 03:16:18;;;;;;;6.50;4.00;;;;;;;10.74;76.61;99948.36;105589;1279;24266;-74
2022/09/12 03:19:15;;;;;;;6.80;4.50;;;;;;;10.72;76.77;99949.80;105550;1279;22593;-74
2022/09/12 03:21:51;;;;;;;9.50;5.10;;;;;;;10.73;76.91;99949.42;105560;1279;22614;-77
2022/09/12 03:24:37;;;;;;;5.70;3.90;;;;;;;10.76;76.89;99954.31;105218;1285;24250;-77
2022/09/12 03:27:10;;;;;;;9.90;4.00;;;;;;;10.77;76.80;99955.00;105186;1282;22547;-74
2022/09/12 03:29:39;;;;;;;6.80;3.60;;;;;;;10.76;76.90;99962.77;105460;1281;23928;-75
2022/09/12 03:32:06;;;;;;;6.40;3.50;;;;;;;10.72;77.00;99965.29;105575;1279;24126;-78
2022/09/12 03:34:33;;;;;;;6.00;3.20;;;;;;;10.72;77.11;99966.52;105438;1280;22562;-78
2022/09/12 03:37:00;;;;;;;5.40;3.10;;;;;;;10.68;77.20;99971.52;105459;1282;22511;-79
2022/09/12 03:39:27;;;;;;;4.30;3.60;;;;;;;10.65;77.27;99975.79;105591;1280;22594;-83
2022/09/12 03:41:54;;;;;;;8.50;3.30;;;;;;;10.64;77.53;99977.22;105252;1273;24518;-76
2022/09/12 03:44:22;;;;;;;4.30;3.60;;;;;;;10.60;77.62;99978.50;105544;1279;23062;-77
2022/09/12 03:46:49;;;;;;;5.20;3.70;;;;;;;10.56;77.75;99986.67;105419;1282;22542;-74
2022/09/12 03:49:16;;;;;;;5.20;3.50;;;;;;;10.51;77.96;99992.20;105467;1279;24445;-73
2022/09/12 03:51:43;;;;;;;6.10;3.20;;;;;;;10.46;78.17;99991.73;105654;1279;22558;-74
2022/09/12 03:54:11;;;;;;;4.80;3.40;;;;;;;10.45;78.35;99985.41;105554;1280;22521;-74
2022/09/12 03:56:39;;;;;;;5.50;4.10;;;;;;;10.44;78.65;99987.34;105586;1281;24345;-76
2022/09/12 03:59:07;;;;;;;5.10;4.00;;;;;;;10.44;78.82;99987.34;105549;1279;22903;-77
2022/09/12 04:01:34;;;;;;;5.20;4.00;;;;;;;10.40;78.86;99984.24;105638;1278;23098;-75
2022/09/12 04:04:01;;;;;;;5.60;3.70;;;;;;;10.40;79.02;99984.23;106293;1273;24233;-84
2022/09/12 04:06:28;;;;;;;5.20;3.70;;;;;;;10.42;79.18;99981.21;106872;1273;24267;-79
2022/09/12 04:08:55;;;;;;;3.80;2.90;;;;;;;10.45;79.33;99987.16;106440;1281;22748;-79
2022/09/12 04:11:23;;;;;;;6.20;3.60;;;;;;;10.45;79.26;99985.58;106503;1281;22617;-80
2022/09/12 04:13:50;;;;;;;7.00;4.10;;;;;;;10.44;79.17;99991.57;107467;1281;22636;-79
2022/09/12 04:16:18;;;;;;;3.90;3.30;;;;;;;10.45;79.30;99997.38;106875;1281;25349;-77
2022/09/12 04:18:45;;;;;;;7.50;3.60;;;;;;;10.47;79.33;99998.25;107093;1284;22503;-75
2022/09/12 04:21:18;;;;;;;4.40;3.60;;;;;;;10.50;79.27;99996.98;105840;1284;22615;-76
2022/09/12 04:23:47;;;;;;;6.40;3.60;;;;;;;10.52;79.36;99997.48;107710;1284;22662;-87
2022/09/12 04:26:16;;;;;;;9.90;4.10;;;;;;;10.51;79.20;99999.61;105140;1289;25369;-78
2022/09/12 04:28:45;;;;;;;10.90;3.80;;;;;;;10.48;79.15;100000.71;105590;1284;26726;-76
2022/09/12 04:31:19;;;;;;;11.80;4.60;;;;;;;10.49;79.28;100002.63;105357;1285;23258;-78
2022/09/12 04:33:46;;;;;;;9.20;4.20;;;;;;;10.47;79.34;100003.36;105105;1284;25261;-81
2022/09/12 04:36:16;;;;;;;13.00;5.30;;;;;;;10.44;79.54;99999.70;105257;1280;22572;-80
2022/09/12 04:38:44;;;;;;;11.60;4.40;;;;;;;10.45;79.56;100001.95;105773;1281;24079;-79
2022/09/12 04:41:33;;;;;;;13.40;4.50;;;;;;;10.39;79.61;100000.63;105854;1279;25378;-79
2022/09/12 04:44:03;;;;;;;11.70;4.60;;;;;;;10.36;79.66;100012.63;105659;1274;24272;-82
2022/09/12 04:46:33;;;;;;;10.20;4.60;;;;;;;10.34;79.77;100015.84;106260;1273;22677;-79
2022/09/12 04:49:01;;;;;;;12.30;5.30;;;;;;;10.24;79.96;100014.73;106260;1274;26703;-79
2022/09/12 04:51:34;;;;;;;15.10;4.60;;;;;;;10.18;80.09;100017.45;105617;1281;26526;-79
2022/09/12 04:54:07;;;;;;;14.40;4.40;;;;;;;10.19;80.15;100020.27;105605;1281;22654;-80
2022/09/12 04:56:40;;;;;;;9.40;4.50;;;;;;;10.19;80.24;100020.43;105760;1281;25419;-80
2022/09/12 04:59:09;;;;;;;8.60;4.30;;;;;;;10.21;80.30;100022.00;105751;1280;25400;-77
2022/09/12 05:01:35;;;;;;;10.40;4.90;;;;;;;10.21;80.25;100023.75;105900;1279;25800;-79
2022/09/12 05:04:04;;;;;;;9.80;3.90;;;;;;;10.17;80.19;100022.74;105747;1279;24240;-76
2022/09/12 05:06:35;;;;;;;7.60;4.10;;;;;;;10.20;80.19;100024.12;105835;1279;25438;-77
2022/09/12 05:09:05;;;;;;;6.90;3.70;;;;;;;10.18;80.30;100026.78;105636;1274;22541;-78
2022/09/12 05:11:35;;;;;;;6.30;3.70;;;;;;;10.19;80.32;100031.89;106127;1274;22680;-77
2022/09/12 05:14:22;;;;;;;4.00;3.60;;;;;;;10.12;80.38;100038.12;106129;1273;22563;-78
2022/09/12 05:16:49;;;;;;;5.90;4.10;;;;;;;10.07;80.58;100036.62;106172;1276;22609;-81
2022/09/12 05:19:16;;;;;;;4.70;3.30;;;;;;;10.03;80.77;100036.13;106284;1273;22537;-74
2022/09/12 05:21:43;;;;;;;4.80;3.90;;;;;;;10.01;80.90;100034.05;106123;1274;26016;-77
2022/09/12 05:24:10;;;;;;;5.30;3.90;;;;;;;10.00;81.04;100038.98;106040;1275;25315;-77
2022/09/12 05:26:38;;;;;;;5.60;4.20;;;;;;;10.02;81.06;100037.55;106158;1273;22538;-79
2022/09/12 05:29:05;;;;;;;6.20;4.40;;;;;;;10.06;81.12;100041.55;106072;1273;24389;-77
2022/09/12 05:31:33;;;;;;;7.50;4.50;;;;;;;10.09;80.99;100040.45;106324;1273;24235;-76
2022/09/12 05:34:05;;;;;;;6.10;4.30;;;;;;;10.09;81.13;100041.69;106621;1277;22471;-78
2022/09/12 05:36:33;;;;;;;8.70;4.60;;;;;;;10.08;81.19;100040.98;106083;1274;24251;-79
2022/09/12 05:39:00;;;;;;;6.80;4.00;;;;;;;10.10;81.07;100041.85;106315;1273;25480;-82
2022/09/12 05:41:29;;;;;;;7.10;4.70;;;;;;;10.11;81.18;100042.89;105838;1281;25461;-82
2022/09/12 05:44:02;;;;;;;7.50;4.60;;;;;;;10.12;81.14;100048.16;105620;1279;24246;-81
2022/09/12 05:46:35;;;;;;;6.00;4.00;;;;;;;10.10;81.20;100049.95;105704;1279;23228;-83
2022/09/12 05:49:08;;;;;;;6.00;4.20;;;;;;;10.09;81.37;100052.77;105695;1280;24029;-82
2022/09/12 05:51:39;;;;;;;8.50;4.80;;;;;;;10.12;81.45;100051.15;105750;1281;24245;-82
2022/09/12 05:54:09;;;;;;;9.10;5.50;;;;;;;10.14;81.58;100050.41;105969;1279;22541;-81
2022/09/12 05:56:39;;;;;;;9.10;4.50;;;;;;;10.20;81.67;100051.21;106207;1279;24348;-81
2022/09/12 05:59:15;;;;;;;7.10;5.00;;;;;;;10.26;81.44;100053.09;106118;1277;24236;-82
2022/09/12 06:01:42;;;;;;;;;;;;;;;10.21;81.55;100050.15;106315;1277;22623;-84
2022/09/12 06:04:10;;;;;;;9.40;5.30;;;;;;;10.21;81.77;100048.04;106459;1274;25371;-82
2022/09/12 06:06:40;;;;;;;7.80;4.80;;;;;;;10.25;81.72;100051.17;106734;1274;22748;-83
2022/09/12 06:09:08;;;;;;;6.80;4.40;;;;;;;10.24;81.66;100051.17;106723;1274;22534;-82
2022/09/12 06:11:39;;;;;;;7.40;3.90;;;;;;;10.22;81.73;100044.52;107044;1276;22550;-83
2022/09/12 06:14:12;;;;;;;9.40;4.10;;;;;;;10.29;81.87;100045.64;107076;1276;22602;-83
2022/09/12 06:16:39;;;;;;;4.30;3.70;;;;;;;10.29;81.66;100047.77;106904;1279;23198;-81
2022/09/12 06:19:16;;;;;;;8.20;3.80;;;;;;;10.31;81.75;100048.62;106412;1282;23955;-81
2022/09/12 06:21:43;;;;;;;;;;;;;;;10.27;82.03;100046.73;105852;1281;22528;-81
2022/09/12 06:24:10;;;;;;;5.80;3.70;;;;;;;10.24;82.15;100048.17;105706;1281;22544;-83
2022/09/12 06:26:37;;;;;;;7.40;4.40;;;;;;;10.24;82.33;100046.24;105686;1281;22565;-83
2022/09/12 06:29:04;;;;;;;6.80;4.30;;;;;;;10.31;82.45;100050.20;105733;1281;22564;-82
2022/09/12 06:31:35;;;;;;;8.60;4.40;;;;;;;10.37;82.40;100047.66;105528;1279;22745;-83
2022/09/12 06:34:07;;;;;;;8.90;4.30;;;;;;;10.41;82.34;100053.92;105438;1277;24285;-83
2022/09/12 06:36:40;;;;;;;4.60;3.40;;;;;;;10.43;82.45;100050.22;106054;1274;26501;-84
2022/09/12 06:39:16;;;;;;;5.10;4.10;;;;;;;10.40;82.34;100054.66;105960;1278;24370;-83
2022/09/12 06:41:44;;;;;;;5.00;4.10;;;;;;;10.42;82.52;100057.80;106093;1273;22536;-77
2022/09/12 06:44:18;;;;;;;5.80;3.80;;;;;;;10.39;82.52;100057.66;106015;1275;22611;-81
2022/09/12 06:46:45;;;;;;;7.00;4.30;;;;;;;10.45;82.73;100065.33;106108;1277;23954;-80
2022/09/12 06:49:12;;;;;;;6.90;4.00;;;;;;;10.49;82.79;100060.55;106081;1274;22666;-81
2022/09/12 06:51:43;;;;;;;6.00;4.00;;;;;;;10.55;82.76;100057.11;106056;1277;25248;-82
2022/09/12 06:54:15;;;;;;;9.50;4.30;;;;;;;10.59;82.73;100059.53;106129;1275;22677;-83
2022/09/12 06:56:44;;;;;;;7.70;4.10;;;;;;;10.59;82.45;100062.34;106204;1274;24288;-81
2022/09/12 06:59:11;;;;;;;7.60;4.40;;;;;;;10.58;82.60;100061.66;106052;1277;24280;-83
2022/09/12 07:01:39;;;;;;;7.50;4.20;;;;;;;10.56;82.59;100062.38;106407;1274;22554;-84
2022/09/12 07:04:06;;;;;;;5.20;4.10;;;;;;;10.55;82.70;100062.76;106488;1274;25254;-83
2022/09/12 07:06:39;;;;;;;5.90;3.50;;;;;;;10.61;82.81;100066.36;106445;1277;25254;-83
2022/09/12 07:09:10;;;;;;;7.80;3.80;;;;;;;10.71;82.94;100067.81;106048;1275;22531;-82
2022/09/12 07:11:39;;;;;;;6.20;4.40;;;;;;;10.76;82.68;100074.24;105964;1275;24291;-84
2022/09/12 07:14:07;;;;;;;7.00;4.50;;;;;;;10.77;82.50;100070.02;106054;1277;25423;-83
2022/09/12 07:16:35;;;;;;;8.30;5.00;;;;;;;10.78;82.42;100076.16;105955;1277;22827;-83
2022/09/12 07:19:04;;;;;;;6.80;4.10;;;;;;;10.73;82.46;100082.23;106046;1274;25252;-83
2022/09/12 07:21:31;;;;;;;7.60;4.40;;;;;;;10.69;82.48;100084.39;105601;1281;22768;-83
2022/09/12 07:23:58;;;;;;;6.30;4.50;;;;;;;10.76;82.99;100085.52;105503;1284;24369;-83
2022/09/12 07:26:27;;;;;;;6.80;4.10;;;;;;;10.82;82.90;100087.55;105098;1287;22770;-82
2022/09/12 07:28:56;;;;;;;12.50;5.20;;;;;;;10.88;82.72;100087.29;105338;1288;22573;-81
2022/09/12 07:31:44;;;;;;;10.80;4.80;;;;;;;10.94;82.78;100088.95;105303;1287;25353;-82
2022/09/12 07:34:11;;;;;;;8.70;4.50;;;;;;;11.07;83.14;100092.62;105171;1287;22729;-83
2022/09/12 07:36:38;;;;;;;6.70;3.90;;;;;;;11.12;82.55;100099.41;105249;1290;22691;-83
2022/09/12 07:39:05;;;;;;;7.00;3.80;;;;;;;11.08;82.43;100101.06;105059;1287;22553;-83
2022/09/12 07:41:35;;;;;;;7.10;4.10;;;;;;;11.08;82.50;100100.17;105343;1279;24237;-82
2022/09/12 07:44:02;;;;;;;6.80;3.90;;;;;;;11.08;82.61;100103.20;105890;1279;25660;-81
2022/09/12 07:46:30;;;;;;;7.50;4.60;;;;;;;11.09;82.31;100110.39;106104;1274;24457;-82
2022/09/12 07:48:59;;;;;;;6.40;4.40;;;;;;;11.11;82.15;100109.48;105994;1275;24288;-81
2022/09/12 07:51:29;;;;;;;6.50;3.80;;;;;;;11.11;82.43;100111.09;105862;1275;24349;-83
2022/09/12 07:53:56;;;;;;;6.00;4.30;;;;;;;11.12;82.43;100114.58;106614;1274;22613;-85
2022/09/12 07:56:24;;;;;;;6.10;4.00;;;;;;;11.23;82.52;100116.35;106363;1277;22616;-83
2022/09/12 07:58:57;;;;;;;7.50;4.60;;;;;;;11.38;82.55;100118.73;106126;1275;25258;-82
2022/09/12 08:01:25;;;;;;;8.40;4.40;;;;;;;11.43;81.77;100122.20;106204;1274;22532;-83
2022/09/12 08:03:59;;;;;;;12.70;5.30;;;;;;;11.44;81.65;100126.23;107468;1274;24236;-82
2022/09/12 08:06:29;;;;;;;8.10;4.20;;;;;;;11.52;81.83;100128.73;108539;1274;22561;-82
2022/09/12 08:08:58;;;;;;;7.60;4.20;;;;;;;11.56;81.47;100125.50;108753;1274;22617;-81
2022/09/12 08:11:28;;;;;;;10.50;3.90;;;;;;;11.62;81.40;100126.29;108897;1274;22732;-83
2022/09/12 08:13:57;;;;;;;8.20;4.10;;;;;;;11.69;81.17;100128.44;108873;1274;23799;-83
2022/09/12 08:16:30;;;;;;;6.50;4.80;;;;;;;11.72;80.99;100131.55;109181;1274;22548;-82
2022/09/12 08:18:57;;;;;;;5.60;4.10;;;;;;;11.78;80.99;100134.98;109172;1274;22562;-81
2022/09/12 08:21:27;;;;;;;5.70;3.10;;;;;;;11.83;80.85;100134.19;109173;1275;23478;-83
2022/09/12 08:23:57;;;;;;;5.60;3.70;;;;;;;11.83;80.48;100131.72;108919;1274;22961;-81
2022/09/12 08:26:24;;;;;;;5.30;3.50;;;;;;;11.86;80.57;100130.77;108330;1274;22568;-82
2022/09/12 08:28:52;;;;;;;5.20;4.00;;;;;;;11.85;80.40;100128.15;106561;1274;22553;-82
2022/09/12 08:31:21;;;;;;;7.10;4.20;;;;;;;11.83;80.56;100127.84;106181;1275;24437;-83
2022/09/12 08:33:48;;;;;;;4.90;3.40;;;;;;;11.89;80.64;100131.06;107787;1274;22574;-82
2022/09/12 08:36:21;;;;;;;4.10;3.10;;;;;;;11.99;80.63;100129.13;107825;1275;25628;-81
2022/09/12 08:38:54;;;;;;;5.40;3.70;;;;;;;11.98;79.95;100130.39;107102;1274;26495;-81
2022/09/12 08:41:29;;;;;;;5.60;3.70;;;;;;;11.99;80.22;100132.13;105708;1280;25506;-83
2022/09/12 08:44:08;;;;;;;6.70;4.00;;;;;;;12.01;80.36;100127.84;105931;1279;22839;-83
2022/09/12 08:47:12;;;;;;;4.30;3.50;;;;;;;12.01;80.42;100132.96;105728;1277;25467;-82
2022/09/12 08:49:58;;;;;;;8.30;4.00;;;;;;;12.08;80.28;100127.92;105724;1278;25542;-82
2022/09/12 08:53:03;;;;;;;7.70;3.70;;;;;;;12.16;80.04;100126.36;105648;1279;24900;-81
2022/09/12 08:55:37;;;;;;;7.10;4.20;;;;;;;12.16;79.78;100128.13;105571;1279;25480;-83
2022/09/12 08:58:10;;;;;;;5.80;4.50;;;;;;;12.13;79.79;100131.01;106023;1277;25248;-81
2022/09/12 09:00:47;;;;;;;5.70;3.70;;;;;;;12.12;80.10;100133.33;105920;1277;25472;-81
2022/09/12 09:03:43;;;;;;;8.40;4.10;;;;;;;12.17;80.09;100131.63;106021;1278;25257;-81
2022/09/12 09:06:17;;;;;;;5.10;3.80;;;;;;;12.29;80.19;100134.59;106041;1275;23922;-80
2022/09/12 09:09:24;;;;;;;5.70;4.20;;;;;;;12.38;79.72;100137.04;106199;1273;22730;-80
2022/09/12 09:12:11;;;;;;;6.60;3.80;;;;;;;12.44;79.31;100134.64;105792;1281;25643;-81
2022/09/12 09:14:54;;;;;;;3.80;3.40;;;;;;;12.43;79.25;100133.77;106018;1281;23939;-82
2022/09/12 09:17:27;;;;;;;6.20;3.50;;;;;;;12.50;79.60;100129.55;106108;1281;22672;-83
2022/09/12 09:20:12;;;;;;;4.40;3.20;;;;;;;12.66;79.59;100131.52;105631;1281;24134;-83
2022/09/12 09:22:47;;;;;;;4.90;3.10;;;;;;;12.82;79.04;100132.05;105973;1281;22557;-83
2022/09/12 09:25:29;;;;;;;4.20;3.20;;;;;;;12.88;78.35;100134.92;106971;1281;22723;-83
2022/09/12 09:28:06;;;;;;;5.80;3.20;;;;;;;12.82;77.98;100136.45;106086;1281;22715;-79
2022/09/12 09:30:34;;;;;;;;;;;;;;;12.77;77.95;100131.10;105752;1281;22602;-83
2022/09/12 09:33:05;;;;;;;5.70;3.70;;;;;;;12.80;77.79;100138.43;105689;1281;22558;-82
2022/09/12 09:35:44;;;;;;;5.30;3.60;;;;;;;12.86;77.78;100139.36;105625;1281;22880;-82
2022/09/12 09:38:39;;;;;;;4.20;3.10;;;;;;;12.91;77.98;100138.20;105822;1281;23094;-82
2022/09/12 09:41:15;;;;;;;4.90;2.80;;;;;;;12.95;77.42;100136.89;105284;1287;23153;-82
2022/09/12 09:43:42;;;;;;;4.90;3.40;;;;;;;12.98;77.38;100142.64;105223;1287;22866;-80
2022/09/12 09:46:10;;;;;;;5.40;3.80;;;;;;;12.98;77.23;100145.65;105065;1287;23385;-83
2022/09/12 09:48:43;;;;;;;10.80;3.10;;;;;;;13.02;77.28;100145.92;105089;1282;26489;-83
2022/09/12 09:51:10;;;;;;;7.70;3.20;;;;;;;13.14;77.39;100144.56;105810;1281;23945;-83
2022/09/12 09:53:49;;;;;;;3.20;2.60;;;;;;;13.29;77.31;100146.70;105824;1280;22537;-82
2022/09/12 09:56:25;;;;;;;6.80;3.50;;;;;;;13.33;76.29;100146.08;105990;1279;25622;-84
2022/09/12 09:58:53;;;;;;;3.90;2.70;;;;;;;13.28;76.05;100149.20;105980;1279;24303;-82
2022/09/12 10:01:20;;;;;;;4.30;3.50;;;;;;;13.24;75.76;100148.59;105834;1279;22617;-83
2022/09/12 10:03:53;;;;;;;4.50;3.30;;;;;;;13.20;75.84;100148.67;105676;1280;22784;-83
2022/09/12 10:06:19;;;;;;;5.70;2.80;;;;;;;13.18;75.93;100149.78;106328;1273;25244;-83
2022/09/12 10:08:49;;;;;;;3.30;2.70;;;;;;;13.18;75.84;100154.56;106930;1273;24218;-82
2022/09/12 10:11:21;;;;;;;5.40;3.20;;;;;;;13.16;76.03;100156.54;107201;1273;24336;-82
2022/09/12 10:13:55;;;;;;;5.60;3.40;;;;;;;13.18;76.40;100161.29;106190;1274;22654;-83
2022/09/12 10:16:24;;;;;;;5.20;3.60;;;;;;;13.16;76.01;100163.61;106070;1276;22541;-84
2022/09/12 10:18:52;;;;;;;4.80;3.40;;;;;;;13.14;75.94;100175.16;106482;1273;22550;-85
2022/09/12 10:21:44;;;;;;;6.90;3.70;;;;;;;13.10;75.63;100172.41;106193;1273;22564;-84
2022/09/12 10:24:25;;;;;;;4.50;3.40;;;;;;;13.04;75.81;100175.91;107080;1274;22597;-82
2022/09/12 10:26:52;;;;;;;6.80;3.60;;;;;;;13.03;76.00;100179.30;106727;1274;24001;-82
2022/09/12 10:29:32;;;;;;;6.90;3.80;;;;;;;13.01;75.78;100177.91;107178;1273;25251;-82
2022/09/12 10:32:07;;;;;;;5.60;3.20;;;;;;;13.02;76.08;100182.68;107324;1276;22537;-81
2022/09/12 10:34:45;;;;;;;3.20;2.80;;;;;;;13.02;75.54;100183.39;107474;1276;24931;-82
2022/09/12 10:37:35;;;;;;;5.90;3.10;;;;;;;12.98;75.58;100182.05;107248;1273;22657;-82
2022/09/12 10:40:04;;;;;;;5.30;3.00;;;;;;;12.96;75.72;100186.34;107315;1273;25376;-82
2022/09/12 10:42:50;;;;;;;6.00;3.00;;;;;;;12.98;75.81;100188.59;107494;1273;22533;-81
2022/09/12 10:45:20;;;;;;;7.00;3.00;;;;;;;12.99;75.82;100185.91;107729;1277;22562;-81
2022/09/12 10:47:48;;;;;;;4.70;3.40;;;;;;;12.97;75.71;100188.25;107766;1277;22815;-83
2022/09/12 10:50:29;;;;;;;5.70;3.10;;;;;;;12.98;75.83;100192.65;108120;1278;22775;-82
2022/09/12 10:53:27;;;;;;;5.50;3.10;;;;;;;13.02;75.97;100188.70;108554;1277;22539;-82
2022/09/12 10:56:15;;;;;;;4.40;3.10;;;;;;;13.14;76.01;100193.70;108821;1277;24287;-82
2022/09/12 10:58:42;;;;;;;6.90;3.10;;;;;;;13.24;75.78;100191.04;108375;1278;22599;-80
2022/09/12 11:01:18;;;;;;;7.00;3.40;;;;;;;13.27;75.55;100196.26;108156;1278;23125;-81
2022/09/12 11:04:19;;;;;;;5.10;3.40;;;;;;;13.23;75.33;100195.63;108751;1273;25348;-81
2022/09/12 11:07:21;;;;;;;7.00;3.40;;;;;;;13.19;75.35;100199.63;109160;1273;22607;-83
2022/09/12 11:10:10;;;;;;;6.10;3.50;;;;;;;13.22;75.58;100201.13;108426;1273;22557;-84
2022/09/12 11:12:50;;;;;;;5.70;4.00;;;;;;;13.30;75.41;100200.61;108210;1274;22546;-81
2022/09/12 11:15:28;;;;;;;6.00;3.50;;;;;;;13.39;75.59;100198.99;108333;1273;24052;-81
2022/09/12 11:18:00;;;;;;;5.60;3.40;;;;;;;13.52;75.42;100200.63;107899;1273;22689;-83
2022/09/12 11:20:45;;;;;;;8.80;3.70;;;;;;;13.59;75.03;100201.17;106980;1273;22541;-84
2022/09/12 11:23:58;;;;;;;3.40;3.00;;;;;;;13.67;74.88;100204.18;106589;1273;24266;-82
2022/09/12 11:26:30;;;;;;;5.20;2.90;;;;;;;13.84;75.20;100201.10;106162;1273;22554;-84
2022/09/12 11:29:19;;;;;;;4.70;3.80;;;;;;;13.99;75.01;100200.87;106618;1272;23938;-83
2022/09/12 11:32:08;;;;;;;4.80;3.40;;;;;;;14.08;74.41;100196.77;106659;1273;22628;-81
2022/09/12 11:35:06;;;;;;;4.70;3.10;;;;;;;14.13;74.48;100198.59;106377;1273;22538;-83
2022/09/12 11:37:52;;;;;;;6.10;2.90;;;;;;;14.14;74.09;100197.66;106252;1273;25383;-82
2022/09/12 11:40:21;;;;;;;5.40;3.40;;;;;;;14.11;74.09;100196.15;106340;1273;22560;-81
2022/09/12 11:42:53;;;;;;;4.80;2.80;;;;;;;14.10;74.00;100196.52;106228;1273;24197;-83
2022/09/12 11:45:44;;;;;;;4.90;2.50;;;;;;;14.07;73.69;100199.80;106453;1273;23964;-82
2022/09/12 11:48:18;;;;;;;4.80;2.90;;;;;;;13.97;73.34;100196.16;106121;1273;25595;-81
2022/09/12 11:50:45;;;;;;;7.30;3.40;;;;;;;13.94;73.35;100200.65;106142;1273;23007;-83
2022/09/12 11:53:27;;;;;;;3.40;2.90;;;;;;;13.91;73.44;100200.92;105993;1273;24289;-81